FW8607 Weather Reports


Display with metric or nautical units.
time (UTC)temp
F
wind
direction
speed
MPH
gust
MPH
rain 1hr
in
rain 24hr
in
rain mn
in
humidity
%
barometer
mb
20240623150039 81 135 3.0 7.0 0.00 0.00 0.00 50 1012.4
20240623143039 78 90 4.0 8.0 0.00 0.00 0.00 58 1012.1
20240623140019 74 113 3.0 7.0 0.00 0.00 0.00 71 1011.9
20240623133018 71 113 3.0 7.0 0.00 0.00 0.00 75 1011.6
20240623130020 71 135 4.0 8.0 0.00 0.00 0.00 74 1011.4
20240623123018 69 135 4.0 7.0 0.00 0.00 0.00 79 1011.5
20240623120019 70 113 2.0 4.0 0.00 0.00 0.00 78 1011.4
20240623113018 70 113 3.0 6.0 0.00 0.00 0.00 79 1011.5
20240623110019 69 135 2.0 5.0 0.00 0.00 0.00 82 1011.4
20240623103018 69 248 1.0 7.0 0.00 0.00 0.00 79 1011.4
20240623100038 71 0.0 0.0 0.00 0.00 0.00 79 1011.2
20240623093018 70 0.0 0.0 0.00 0.00 0.00 81 1011.3
20240623090018 69 0.0 0.0 0.00 0.00 0.00 82 1011.5
20240623083018 68 0.0 3.0 0.00 0.00 0.00 83 1011.8
20240623080018 69 225 1.0 3.0 0.00 0.00 0.00 81 1012.1
20240623073018 69 113 2.0 6.0 0.00 0.00 0.00 83 1012.1
20240623070019 68 113 3.0 6.0 0.00 0.00 0.00 84 1012.1
20240623063019 68 225 3.0 7.0 0.00 0.00 0.00 82 1012.2
20240623060038 70 270 3.0 5.0 0.00 0.00 0.00 80 1012.2
20240623053017 70 270 2.0 4.0 0.00 0.00 0.00 79 1011.9
20240623050018 71 270 4.0 7.0 0.00 0.00 0.00 78 1011.9
20240623043018 73 248 4.0 8.0 0.00 0.00 0.00 73 1011.3
20240623040037 76 270 3.0 7.0 0.00 0.00 0.00 68 1010.6
20240623033019 79 270 2.0 3.0 0.00 0.00 0.00 65 1010.3
20240623030020 81 270 3.0 7.0 0.00 0.00 0.00 61 1010.3
20240623023020 83 293 4.0 7.0 0.00 0.00 0.00 58 1009.9
20240623020019 85 315 4.0 8.0 0.00 0.00 0.00 56 1009.9
20240623013019 86 293 6.0 11.0 0.00 0.00 0.00 54 1009.9
20240623010019 86 315 7.0 11.0 0.00 0.00 0.00 53 1009.8
20240623003020 87 315 7.0 12.0 0.00 0.00 0.00 52 1009.5
20240623000019 88 293 7.0 12.0 0.00 0.00 0.00 51 1009.7
20240622233040 89 270 6.0 11.0 0.00 0.00 0.00 47 1009.9
20240622230019 88 270 7.0 12.0 0.00 0.00 0.00 48 1009.8
20240622223039 88 270 8.0 13.0 0.00 0.00 0.00 47 1009.8
20240622220038 88 270 8.0 15.0 0.00 0.00 0.00 49 1009.8
20240622213018 88 270 9.0 14.0 0.00 0.00 0.00 49 1009.9
20240622210018 90 270 8.0 12.0 0.00 0.00 0.00 48 1009.9
20240622203018 90 270 7.0 15.0 0.00 0.00 0.00 48 1009.8
20240622200018 89 270 7.0 11.0 0.00 0.00 0.00 48 1009.8
20240622193019 87 315 8.0 14.0 0.00 0.00 0.00 51 1009.7
20240622190018 87 315 7.0 14.0 0.00 0.00 0.00 51 1009.6
20240622183040 85 338 7.0 13.0 0.00 0.00 0.00 54 1009.7
20240622180018 84 315 6.0 11.0 0.00 0.00 0.00 55 1009.6
20240622173020 81 315 6.0 11.0 0.00 0.00 0.00 59 1009.7
20240622170018 78 315 5.0 11.0 0.00 0.00 0.00 64 1009.5
20240622163038 77 315 2.0 6.0 0.00 0.00 0.00 67 1009.2
20240622160018 71 270 1.0 4.0 0.00 0.00 0.00 79 1009.2
20240622153039 65 293 2.0 5.0 0.00 0.00 0.00 94 1009.1